Time;durP1;ratioP1;P1;durP2;ratioP2;P2;SDS_P1;SDS_P2;PMS_P1;PMS_P2;Temp;Humidity;BMP_temperature;BMP_pressure;BME280_temperature;BME280_humidity;BME280_pressure;Samples;Min_cycle;Max_cycle;Signal;HPM_P1;HPM_P2
2022/08/26 05:55:13;;;;;;;16.37;10.68;;;;;;;24.49;79.33;100011.81;2184810;79;21134;-72
2022/08/26 05:58:40;;;;;;;19.35;11.65;;;;;;;24.94;78.87;100004.45;2168290;80;21046;-73
2022/08/26 06:01:47;;;;;;;18.62;10.53;;;;;;;25.43;77.58;100009.57;2176093;80;21002;-73
2022/08/26 06:04:50;;;;;;;21.80;10.13;;;;;;;25.51;74.92;100008.23;2178172;80;21030;-73
2022/08/26 06:08:13;;;;;;;21.52;10.32;;;;;;;25.49;74.77;100008.49;2181345;80;21005;-73
2022/08/26 06:11:23;;;;;;;15.68;8.93;;;;;;;25.67;74.85;99999.01;2180555;80;21016;-73
2022/08/26 06:14:34;;;;;;;14.28;9.80;;;;;;;26.15;74.28;100001.52;2176967;80;21023;-72
2022/08/26 06:17:35;;;;;;;17.67;9.10;;;;;;;26.34;72.95;100001.23;2148134;80;21066;-72
2022/08/26 06:20:44;;;;;;;17.10;9.53;;;;;;;26.60;72.32;99999.30;2172115;80;21522;-73
2022/08/26 06:27:13;;;;;;;20.27;9.15;;;;;;;27.00;70.75;99998.92;2194489;80;21006;-72
2022/08/26 06:30:14;;;;;;;21.97;10.10;;;;;;;27.06;69.67;99994.27;2191756;78;21006;-73
2022/08/26 06:33:16;;;;;;;18.45;9.40;;;;;;;27.42;69.44;100001.70;2180673;80;20954;-72
2022/08/26 06:36:21;;;;;;;16.17;8.60;;;;;;;27.72;68.30;99997.98;2190939;80;21517;-72
2022/08/26 06:39:29;;;;;;;22.05;9.30;;;;;;;27.97;67.52;100003.57;2192285;78;21050;-72
2022/08/26 06:42:28;;;;;;;12.60;8.75;;;;;;;28.21;66.93;100009.08;2184916;80;21046;-72
2022/08/26 06:45:31;;;;;;;23.57;9.98;;;;;;;28.35;66.22;99999.13;2194906;80;21018;-72
2022/08/26 06:48:35;;;;;;;16.67;8.85;;;;;;;28.43;64.80;100005.34;2159881;80;21135;-72
2022/08/26 06:51:39;;;;;;;21.70;8.60;;;;;;;28.33;63.84;100002.16;2191088;80;21010;-72
2022/08/26 06:54:42;;;;;;;21.17;9.20;;;;;;;28.33;64.03;100004.08;2194079;80;21089;-72
2022/08/26 06:57:43;;;;;;;17.92;10.15;;;;;;;28.48;63.66;99999.84;2189799;80;21536;-72
2022/08/26 07:00:44;;;;;;;16.05;9.30;;;;;;;28.88;62.98;100003.22;2192687;80;21052;-72
2022/08/26 07:03:49;;;;;;;14.98;8.85;;;;;;;29.61;61.95;100003.92;2192369;80;21050;-72
2022/08/26 07:06:55;;;;;;;23.52;9.58;;;;;;;29.61;61.95;100003.92;2193956;80;21025;-72
2022/08/26 07:09:58;;;;;;;16.97;9.55;;;;;;;29.64;61.54;100008.27;2190140;80;21529;-71
2022/08/26 07:13:05;;;;;;;19.45;10.70;;;;;;;29.47;59.09;100004.66;2191705;80;20951;-72
2022/08/26 07:16:13;;;;;;;18.32;9.75;;;;;;;29.32;60.00;100006.26;2192943;80;21010;-72
2022/08/26 07:19:21;;;;;;;19.37;10.03;;;;;;;29.48;59.54;100006.30;2185595;80;21015;-72
2022/08/26 07:22:23;;;;;;;21.10;11.83;;;;;;;29.39;59.32;100002.59;2200604;80;20986;-72
2022/08/26 07:25:29;;;;;;;21.68;10.23;;;;;;;29.61;59.45;100008.03;2194710;80;21013;-72
2022/08/26 07:28:30;;;;;;;27.55;9.55;;;;;;;29.85;59.23;100007.98;2194551;80;21018;-72
2022/08/26 07:31:44;;;;;;;19.52;9.25;;;;;;;29.76;58.72;100009.73;2190520;80;20930;-72
2022/08/26 07:34:45;;;;;;;20.00;9.75;;;;;;;29.72;56.97;100012.27;2180257;80;21489;-72
2022/08/26 07:37:46;;;;;;;22.22;9.58;;;;;;;29.59;57.70;100009.67;2188015;80;21024;-72
2022/08/26 07:40:47;;;;;;;17.07;9.28;;;;;;;29.83;57.88;100004.72;2193030;80;21010;-71
2022/08/26 07:43:51;;;;;;;20.40;8.90;;;;;;;30.13;57.43;100003.41;2196801;80;21021;-71
2022/08/26 07:46:52;;;;;;;17.05;9.18;;;;;;;30.28;57.32;100000.42;2191034;80;21069;-71
2022/08/26 07:49:58;;;;;;;19.62;9.63;;;;;;;30.57;56.67;100005.63;2167840;80;20997;-72
2022/08/26 07:53:01;;;;;;;22.67;10.18;;;;;;;30.83;56.65;100005.16;2196584;80;21053;-72
2022/08/26 07:56:07;;;;;;;21.82;9.70;;;;;;;31.13;56.06;100005.66;2166465;80;20982;-73
2022/08/26 07:59:10;;;;;;;22.13;10.03;;;;;;;31.43;55.82;100002.84;2201712;80;21111;-71
2022/08/26 08:02:15;;;;;;;17.62;9.65;;;;;;;31.68;55.45;100005.00;2187774;80;20990;-71
2022/08/26 08:05:19;;;;;;;18.32;8.78;;;;;;;31.75;54.58;100002.38;2189005;80;20970;-71
2022/08/26 08:08:25;;;;;;;21.60;9.15;;;;;;;31.84;54.38;100006.80;2185207;80;20979;-72
2022/08/26 08:11:29;;;;;;;19.32;8.25;;;;;;;32.10;53.27;99999.33;2166462;80;21620;-71
2022/08/26 08:14:35;;;;;;;20.52;8.98;;;;;;;32.22;52.90;99998.77;2181685;80;20987;-71
2022/08/26 08:17:38;;;;;;;19.45;8.28;;;;;;;32.47;52.70;100002.25;2189913;80;21048;-71
2022/08/26 08:20:41;;;;;;;24.70;9.05;;;;;;;32.40;50.71;99999.09;2194060;78;21027;-71
2022/08/26 08:23:42;;;;;;;19.05;9.30;;;;;;;32.15;50.82;100001.38;2192214;80;21050;-71
2022/08/26 08:26:46;;;;;;;16.00;7.90;;;;;;;32.15;50.84;100001.38;2193984;80;20986;-71
2022/08/26 08:29:48;;;;;;;14.83;7.78;;;;;;;31.79;50.05;100000.62;2189627;80;21017;-71
2022/08/26 08:32:51;;;;;;;18.17;8.28;;;;;;;31.69;50.18;99995.64;2191381;80;21493;-71
2022/08/26 08:35:54;;;;;;;17.00;7.65;;;;;;;31.93;50.52;99994.53;2192345;80;20991;-71
2022/08/26 08:38:55;;;;;;;16.65;7.92;;;;;;;32.24;50.56;99986.90;2186561;80;21026;-72
2022/08/26 08:42:31;;;;;;;22.52;9.00;;;;;;;32.55;49.94;99978.67;2188412;80;21378;-71
2022/08/26 08:45:56;;;;;;;19.42;7.67;;;;;;;32.25;48.97;99985.80;2166620;80;20971;-72
2022/08/26 08:49:02;;;;;;;15.90;8.03;;;;;;;31.86;48.58;99980.44;2188051;80;21037;-71
2022/08/26 08:52:27;;;;;;;18.40;7.65;;;;;;;31.85;48.74;99985.69;2186176;80;21028;-72
2022/08/26 08:55:37;;;;;;;14.18;6.95;;;;;;;31.84;48.77;99986.78;2189373;80;21023;-72
2022/08/26 08:58:50;;;;;;;;;;;;;;;32.04;47.79;99987.67;2195722;80;21009;-72
2022/08/26 09:02:41;;;;;;;16.90;7.08;;;;;;;31.91;48.10;99985.27;2189263;80;20415;-72
2022/08/26 09:05:54;;;;;;;12.98;6.92;;;;;;;32.15;47.88;99982.73;2186753;80;21557;-72
2022/08/26 09:08:54;;;;;;;12.55;6.37;;;;;;;32.10;47.28;99979.58;2183213;80;21515;-71
2022/08/26 09:12:00;;;;;;;14.95;6.67;;;;;;;31.97;46.96;99976.34;2188225;80;21044;-72
2022/08/26 09:15:12;;;;;;;15.50;6.70;;;;;;;31.91;47.32;99971.55;2185406;80;20931;-72
2022/08/26 09:18:53;;;;;;;13.35;6.00;;;;;;;32.00;46.95;99974.34;2176690;80;20995;-72
2022/08/26 09:21:58;;;;;;;15.28;6.22;;;;;;;31.93;46.62;99972.59;2180686;80;21010;-72
2022/08/26 09:25:05;;;;;;;17.62;6.53;;;;;;;31.78;44.88;99972.39;2196467;80;21033;-73
2022/08/26 09:28:11;;;;;;;14.13;6.35;;;;;;;31.57;45.38;99969.34;2189580;80;21469;-72
2022/08/26 09:31:28;;;;;;;16.42;6.25;;;;;;;31.40;45.31;99970.58;2183922;80;21013;-72
2022/08/26 09:34:31;;;;;;;13.43;6.10;;;;;;;31.22;45.26;99968.98;2190353;80;21085;-72
2022/08/26 09:37:43;;;;;;;14.28;5.72;;;;;;;31.15;45.59;99963.70;2190038;79;20974;-72
2022/08/26 09:41:23;;;;;;;16.60;6.17;;;;;;;31.13;44.91;99965.93;2183066;80;21465;-72
2022/08/26 09:44:28;;;;;;;16.70;5.92;;;;;;;31.25;44.32;99959.34;2186118;80;21053;-72
2022/08/26 09:47:34;;;;;;;21.30;7.20;;;;;;;31.19;44.59;99957.28;2182302;80;21094;-72
2022/08/26 09:51:04;;;;;;;13.68;6.20;;;;;;;31.28;44.42;99950.50;2182959;80;20961;-71
2022/08/26 09:54:08;;;;;;;11.00;5.28;;;;;;;31.17;43.37;99954.05;2179707;80;20954;-72
2022/08/26 09:57:19;;;;;;;13.85;5.90;;;;;;;31.11;43.54;99957.20;2188775;80;21463;-72
2022/08/26 10:00:34;;;;;;;14.93;4.92;;;;;;;31.23;43.69;99956.93;2182549;80;20999;-72
2022/08/26 10:03:43;;;;;;;16.93;5.72;;;;;;;31.18;42.16;99946.64;2160599;80;20993;-71
2022/08/26 10:07:09;;;;;;;9.35;5.00;;;;;;;31.17;43.36;99949.95;2186361;80;21010;-72
2022/08/26 10:10:34;;;;;;;10.33;4.97;;;;;;;31.17;42.05;99937.61;2165588;80;20995;-72
2022/08/26 10:13:43;;;;;;;15.53;5.20;;;;;;;31.16;42.10;99938.72;2188901;80;20977;-72
2022/08/26 10:17:14;;;;;;;9.80;4.03;;;;;;;31.01;41.35;99934.95;2182635;80;21022;-71
2022/08/26 10:20:23;;;;;;;10.10;4.20;;;;;;;30.99;40.69;99936.62;2171466;80;20994;-71
2022/08/26 10:23:33;;;;;;;9.43;4.30;;;;;;;30.93;40.76;99934.31;2187574;80;20998;-71
2022/08/26 10:26:58;;;;;;;11.00;4.67;;;;;;;30.93;40.20;99932.94;2187424;80;20930;-71
2022/08/26 10:33:30;;;;;;;13.75;4.20;;;;;;;31.10;40.49;99934.47;2121956;80;21129;-72
2022/08/26 10:36:51;;;;;;;14.93;3.83;;;;;;;31.12;38.51;99932.81;2192264;80;21057;-72
2022/08/26 10:39:59;;;;;;;8.50;3.90;;;;;;;30.99;38.39;99922.13;2190096;80;20995;-72
2022/08/26 10:43:08;;;;;;;8.93;4.03;;;;;;;30.88;38.48;99929.74;2187620;80;21525;-72
2022/08/26 10:46:15;;;;;;;8.00;4.15;;;;;;;30.89;37.59;99924.53;2193237;80;21074;-72
2022/08/26 10:49:19;;;;;;;20.85;3.83;;;;;;;30.88;37.39;99926.20;2185897;80;21124;-71
2022/08/26 10:52:26;;;;;;;12.95;4.22;;;;;;;30.77;38.57;99925.57;2193142;80;21492;-69
2022/08/26 10:55:37;;;;;;;12.63;4.08;;;;;;;30.66;37.55;99914.58;2192427;80;21548;-70
2022/08/26 10:58:51;;;;;;;10.25;3.90;;;;;;;30.63;37.76;99912.45;2183809;80;21030;-71
2022/08/26 11:02:00;;;;;;;12.33;4.45;;;;;;;30.66;38.09;99912.64;2191750;80;21487;-71
2022/08/26 11:05:22;;;;;;;12.20;3.42;;;;;;;30.73;38.42;99904.03;2191071;80;20987;-72
2022/08/26 11:08:29;;;;;;;12.05;4.25;;;;;;;30.91;38.36;99902.30;2190873;80;21458;-71
2022/08/26 11:11:47;;;;;;;12.37;4.45;;;;;;;30.92;38.33;99902.58;2185999;80;21033;-71
2022/08/26 11:14:49;;;;;;;8.90;3.90;;;;;;;30.87;38.17;99904.85;2185809;80;20985;-71
2022/08/26 11:18:01;;;;;;;11.60;3.83;;;;;;;30.94;37.46;99901.68;2188214;80;21061;-71
2022/08/26 11:21:08;;;;;;;10.58;4.03;;;;;;;30.96;37.98;99885.76;2152048;80;21070;-71
2022/08/26 11:24:41;;;;;;;6.10;3.87;;;;;;;30.95;38.01;99885.52;2183628;80;21058;-72
2022/08/26 11:27:56;;;;;;;14.07;4.22;;;;;;;31.05;38.69;99886.64;2164847;80;21058;-71
2022/08/26 11:31:04;;;;;;;9.60;3.80;;;;;;;31.11;38.65;99881.85;2163226;80;21074;-72
2022/08/26 11:34:10;;;;;;;8.45;3.45;;;;;;;31.21;37.93;99874.20;2189552;80;21129;-72
2022/08/26 11:37:17;;;;;;;10.00;4.15;;;;;;;31.15;38.33;99865.06;2178281;80;21500;-72
2022/08/26 11:40:27;;;;;;;9.65;3.77;;;;;;;31.20;38.59;99871.23;2192814;78;21001;-72
2022/08/26 11:43:29;;;;;;;;;;;;;;;31.26;37.74;99861.77;2187374;80;21041;-72
2022/08/26 11:46:34;;;;;;;8.13;3.05;;;;;;;31.27;37.86;99865.30;2190727;80;20135;-72
2022/08/26 11:49:33;;;;;;;16.20;3.87;;;;;;;31.39;37.41;99868.88;2188223;80;20994;-72
2022/08/26 11:52:35;;;;;;;12.75;4.12;;;;;;;31.39;37.91;99870.25;2189028;80;21013;-72
2022/08/26 11:55:41;;;;;;;13.80;3.20;;;;;;;31.43;37.41;99858.93;2158538;80;21068;-72
2022/08/26 11:58:45;;;;;;;14.43;3.42;;;;;;;31.39;35.19;99860.09;2184906;80;20973;-72
2022/08/26 12:01:53;;;;;;;12.13;3.35;;;;;;;31.31;37.29;99849.88;2162642;80;20950;-72
2022/08/26 12:04:57;;;;;;;8.53;3.20;;;;;;;31.39;36.37;99856.55;2186734;80;20997;-72
2022/08/26 12:08:04;;;;;;;11.88;3.40;;;;;;;31.32;36.20;99851.48;2192445;80;21515;-72
2022/08/26 12:11:12;;;;;;;11.30;3.63;;;;;;;31.16;35.92;99845.55;2190411;80;21556;-72
2022/08/26 12:14:25;;;;;;;14.70;3.62;;;;;;;31.13;36.56;99848.11;2188805;80;21009;-72
2022/08/26 12:17:30;;;;;;;11.95;3.45;;;;;;;31.09;36.33;99840.28;2186805;80;21068;-72
2022/08/26 12:20:45;;;;;;;15.90;4.03;;;;;;;31.01;35.96;99835.77;2205021;80;21010;-72
2022/08/26 12:23:53;;;;;;;9.28;3.60;;;;;;;30.89;35.54;99831.95;2192614;80;21100;-72
2022/08/26 12:27:18;;;;;;;10.88;3.62;;;;;;;30.91;36.73;99828.34;2184108;80;20991;-72
2022/08/26 12:30:24;;;;;;;13.10;3.87;;;;;;;30.92;35.77;99823.14;2192041;80;21856;-72
2022/08/26 12:33:36;;;;;;;8.73;3.52;;;;;;;30.98;36.59;99821.33;2190774;80;20950;-73
2022/08/26 12:36:49;;;;;;;13.20;3.52;;;;;;;31.01;36.38;99823.45;2188254;78;20990;-72
2022/08/26 12:39:50;;;;;;;8.53;3.40;;;;;;;31.01;36.61;99813.86;2195661;78;20983;-72
2022/08/26 12:42:52;;;;;;;7.75;3.12;;;;;;;31.03;36.45;99806.72;2195317;80;21510;-73
2022/08/26 12:45:59;;;;;;;12.13;3.40;;;;;;;31.04;36.47;99806.38;2186081;78;20963;-72
2022/08/26 12:49:01;;;;;;;11.70;3.60;;;;;;;31.00;35.71;99797.72;2191749;80;21100;-72
2022/08/26 12:52:28;;;;;;;11.35;3.05;;;;;;;30.91;36.89;99808.61;2194349;80;21017;-74
2022/08/26 12:55:26;;;;;;;7.58;3.37;;;;;;;30.90;35.92;99800.72;2190622;80;21346;-73
2022/08/26 12:58:33;;;;;;;11.48;3.15;;;;;;;30.91;37.13;99797.66;2186060;80;20953;-72
2022/08/26 13:01:56;;;;;;;8.88;3.25;;;;;;;30.94;36.74;99792.12;2189892;80;21014;-72
2022/08/26 13:04:46;;;;;;;11.65;3.42;;;;;;;30.92;36.01;99789.70;2182200;80;21033;-73
2022/08/26 13:08:13;;;;;;;14.03;3.05;;;;;;;30.87;36.32;99791.75;2185532;80;21569;-72
2022/08/26 13:11:43;;;;;;;10.60;3.62;;;;;;;30.85;35.91;99780.30;2185506;80;21018;-73
2022/08/26 13:14:50;;;;;;;6.80;3.27;;;;;;;30.81;36.69;99775.44;2187688;80;21136;-72
2022/08/26 13:17:52;;;;;;;8.85;3.50;;;;;;;30.79;36.55;99774.09;2187774;80;21001;-72
2022/08/26 13:20:55;;;;;;;14.07;3.42;;;;;;;30.77;36.18;99766.74;2190570;80;21126;-72
2022/08/26 13:24:10;;;;;;;13.75;3.35;;;;;;;30.71;35.28;99767.98;2189275;80;21485;-72
2022/08/26 13:27:19;;;;;;;12.85;3.62;;;;;;;30.60;36.20;99769.58;2169883;80;20969;-73
2022/08/26 13:30:20;;;;;;;13.50;3.70;;;;;;;30.58;36.82;99768.30;2182064;80;21517;-73
2022/08/26 13:33:23;;;;;;;9.10;2.90;;;;;;;30.61;36.93;99753.98;2186054;80;21005;-72
2022/08/26 13:36:24;;;;;;;9.55;3.15;;;;;;;30.64;36.22;99767.05;2191892;80;21397;-73
2022/08/26 13:39:26;;;;;;;9.10;3.37;;;;;;;30.62;36.99;99753.42;2199572;80;20986;-72
2022/08/26 13:42:28;;;;;;;10.68;3.00;;;;;;;30.56;36.61;99751.36;2187788;80;21048;-72
2022/08/26 13:45:30;;;;;;;12.58;3.33;;;;;;;30.56;36.72;99751.36;2194271;80;20991;-72
2022/08/26 13:48:33;;;;;;;9.25;3.25;;;;;;;30.53;36.29;99743.77;2189554;80;21031;-73
2022/08/26 13:51:36;;;;;;;9.85;3.00;;;;;;;30.48;36.32;99743.31;2203162;80;21022;-72
2022/08/26 13:54:38;;;;;;;13.28;2.90;;;;;;;30.45;36.59;99736.28;2189848;80;20930;-72
2022/08/26 13:57:41;;;;;;;14.53;3.35;;;;;;;30.40;36.66;99733.66;2184639;80;21062;-73
2022/08/26 14:00:44;;;;;;;20.27;3.62;;;;;;;30.38;37.12;99729.31;2183592;80;21030;-70
2022/08/26 14:03:45;;;;;;;8.68;3.58;;;;;;;30.35;35.97;99727.73;2187290;80;21045;-71
2022/08/26 14:06:48;;;;;;;9.65;3.33;;;;;;;30.29;36.26;99729.77;2181543;80;21077;-72
2022/08/26 14:09:50;;;;;;;11.22;3.30;;;;;;;30.26;35.80;99732.31;2193295;80;21482;-72
2022/08/26 14:12:54;;;;;;;11.88;3.27;;;;;;;30.18;36.07;99720.70;2186711;80;20999;-72
2022/08/26 14:16:02;;;;;;;15.65;3.70;;;;;;;30.12;35.44;99724.09;2194612;80;21007;-72
2022/08/26 14:19:11;;;;;;;17.10;3.57;;;;;;;30.09;35.76;99717.31;2193723;80;21080;-71
2022/08/26 14:22:18;;;;;;;12.43;3.98;;;;;;;30.07;36.45;99720.10;2196575;80;20990;-73
2022/08/26 14:25:20;;;;;;;15.13;3.62;;;;;;;30.05;36.24;99708.68;2188284;80;20982;-71
2022/08/26 14:28:22;;;;;;;14.95;3.12;;;;;;;30.08;37.21;99711.60;2187358;78;21468;-71
2022/08/26 14:31:36;;;;;;;14.78;3.12;;;;;;;30.10;36.48;99712.64;2188943;80;20926;-72
2022/08/26 14:34:40;;;;;;;11.40;3.33;;;;;;;30.06;36.26;99717.13;2181725;80;21066;-72
2022/08/26 14:37:42;;;;;;;15.45;4.20;;;;;;;29.99;36.63;99709.88;2172262;79;21050;-69
2022/08/26 14:40:44;;;;;;;11.20;3.33;;;;;;;29.95;36.53;99719.26;2187714;80;21093;-69
2022/08/26 14:43:59;;;;;;;10.82;3.50;;;;;;;29.91;36.10;99720.44;2192388;80;21033;-69
2022/08/26 14:47:16;;;;;;;10.40;4.05;;;;;;;29.88;37.05;99714.77;2182486;79;21058;-69
2022/08/26 14:50:23;;;;;;;9.10;3.25;;;;;;;29.84;37.19;99714.55;2185874;80;21027;-70
2022/08/26 14:56:56;;;;;;;8.73;3.17;;;;;;;29.76;36.10;99720.73;2183879;80;20971;-71
2022/08/26 14:59:57;;;;;;;11.93;3.50;;;;;;;29.72;36.61;99729.30;2194783;80;21042;-71
2022/08/26 15:02:59;;;;;;;15.18;3.80;;;;;;;29.67;37.02;99722.00;2184927;80;21017;-70
2022/08/26 15:06:03;;;;;;;13.70;4.00;;;;;;;29.66;37.68;99712.19;2187878;80;21034;-70
2022/08/26 15:09:10;;;;;;;14.87;3.55;;;;;;;29.63;37.99;99717.46;2193453;80;21485;-71
2022/08/26 15:12:11;;;;;;;9.45;3.08;;;;;;;29.59;37.87;99716.39;2187022;80;21063;-71
2022/08/26 15:15:16;;;;;;;20.10;3.30;;;;;;;29.53;38.16;99711.59;2185698;80;20946;-72
2022/08/26 15:18:21;;;;;;;13.13;3.40;;;;;;;29.48;37.82;99709.78;2188802;80;20990;-71
2022/08/26 15:21:24;;;;;;;17.05;3.00;;;;;;;29.41;37.75;99712.09;2188905;80;20950;-70
2022/08/26 15:24:27;;;;;;;13.62;2.90;;;;;;;29.36;38.10;99719.00;2189698;80;21041;-70
2022/08/26 15:27:29;;;;;;;15.80;2.92;;;;;;;29.31;38.04;99712.83;2194715;80;20975;-70
2022/08/26 15:30:30;;;;;;;10.05;3.05;;;;;;;29.29;38.00;99706.88;2198226;80;20993;-70
2022/08/26 15:33:38;;;;;;;14.00;3.87;;;;;;;29.23;38.00;99709.69;2187112;80;20994;-71
2022/08/26 15:36:41;;;;;;;8.63;2.80;;;;;;;29.19;37.90;99703.19;2185462;80;21571;-72
2022/08/26 15:39:42;;;;;;;9.58;3.58;;;;;;;29.15;38.28;99708.20;2207083;80;21021;-72
2022/08/26 15:42:44;;;;;;;12.30;3.20;;;;;;;28.97;38.42;99686.06;2188769;78;21482;-70
2022/08/26 15:45:45;;;;;;;10.18;2.92;;;;;;;28.99;38.54;99707.62;2210324;80;20951;-71
2022/08/26 15:48:49;;;;;;;11.60;3.40;;;;;;;28.99;38.54;99707.62;2183635;80;20978;-72
2022/08/26 15:51:53;;;;;;;18.05;4.08;;;;;;;28.92;38.29;99712.11;2206133;80;21576;-70
2022/08/26 15:54:57;;;;;;;10.45;3.40;;;;;;;28.89;38.85;99706.41;2180916;80;21454;-71
2022/08/26 15:57:58;;;;;;;15.05;3.50;;;;;;;28.84;38.55;99704.59;2187182;80;21033;-73
2022/08/26 16:01:00;;;;;;;8.35;3.10;;;;;;;28.78;39.24;99691.59;2182305;80;21109;-70
2022/08/26 16:04:09;;;;;;;10.08;3.50;;;;;;;28.74;39.42;99693.83;2193831;80;21121;-71
2022/08/26 16:07:11;;;;;;;9.35;3.08;;;;;;;28.64;39.35;99688.55;2194273;80;21009;-71
2022/08/26 16:10:13;;;;;;;11.15;3.37;;;;;;;28.59;39.46;99692.97;2183503;80;21017;-71
2022/08/26 16:13:15;;;;;;;10.78;3.05;;;;;;;28.53;39.81;99685.17;2188410;80;21017;-71
2022/08/26 16:16:17;;;;;;;13.05;3.08;;;;;;;28.48;39.99;99686.05;2179328;80;21616;-71
2022/08/26 16:19:20;;;;;;;15.58;2.98;;;;;;;28.43;40.36;99680.66;2200869;80;21086;-71
2022/08/26 16:22:21;;;;;;;13.88;3.47;;;;;;;28.37;40.46;99683.18;2182224;80;20950;-70
2022/08/26 16:25:22;;;;;;;12.37;3.58;;;;;;;28.31;40.88;99691.19;2189419;80;20974;-71
2022/08/26 16:28:24;;;;;;;14.45;3.70;;;;;;;28.24;41.10;99679.29;2163753;80;21022;-71
2022/08/26 16:31:26;;;;;;;10.58;3.20;;;;;;;28.18;41.41;99672.81;2183808;80;21065;-72
2022/08/26 16:34:29;;;;;;;12.13;2.70;;;;;;;28.11;41.90;99674.55;2184588;80;20971;-72
2022/08/26 16:37:31;;;;;;;9.43;2.83;;;;;;;28.03;42.07;99677.94;2192647;80;21013;-72
2022/08/26 16:40:37;;;;;;;9.85;3.37;;;;;;;27.98;42.39;99679.36;2187699;80;20997;-69
2022/08/26 16:43:41;;;;;;;11.55;3.02;;;;;;;27.91;42.52;99678.38;2183472;80;21014;-73
2022/08/26 16:46:44;;;;;;;18.60;3.83;;;;;;;27.80;42.87;99671.42;2156161;80;21054;-71
2022/08/26 16:49:52;;;;;;;10.40;3.08;;;;;;;27.74;43.28;99672.56;2190186;80;21041;-71
2022/08/26 16:52:55;;;;;;;13.30;3.85;;;;;;;27.65;43.55;99674.56;2188718;80;21022;-71
2022/08/26 16:55:56;;;;;;;12.98;3.27;;;;;;;27.54;43.88;99676.31;2187156;80;21591;-71
2022/08/26 16:59:05;;;;;;;10.72;3.65;;;;;;;27.40;44.07;99669.41;2193917;79;21017;-71
2022/08/26 17:02:10;;;;;;;13.18;3.10;;;;;;;27.24;44.34;99662.75;2187528;80;21022;-71
2022/08/26 17:05:21;;;;;;;16.77;4.15;;;;;;;27.12;44.63;99661.50;2192839;80;21006;-72
2022/08/26 17:08:16;;;;;;;16.85;3.22;;;;;;;27.00;44.81;99668.14;2175648;80;20978;-72
2022/08/26 17:11:18;;;;;;;12.73;3.45;;;;;;;26.92;44.93;99672.00;2187858;80;21034;-72
2022/08/26 17:14:22;;;;;;;10.65;3.27;;;;;;;26.82;45.15;99672.36;2189741;80;21026;-71
2022/08/26 17:17:23;;;;;;;15.93;3.40;;;;;;;26.70;45.28;99671.93;2187806;80;21092;-72
2022/08/26 17:20:27;;;;;;;7.17;3.08;;;;;;;26.58;45.37;99664.66;2193200;80;21045;-71
2022/08/26 17:23:37;;;;;;;10.20;3.30;;;;;;;26.48;45.62;99662.81;2184869;80;21057;-72
2022/08/26 17:26:43;;;;;;;13.28;3.10;;;;;;;26.34;45.85;99665.34;2184355;80;20991;-71
2022/08/26 17:29:45;;;;;;;13.98;3.47;;;;;;;26.21;45.95;99664.61;2187699;80;21529;-71
2022/08/26 17:32:47;;;;;;;14.35;3.22;;;;;;;26.13;46.09;99663.87;2185192;80;20973;-71
2022/08/26 17:35:48;;;;;;;21.77;4.55;;;;;;;25.99;46.24;99671.82;2203555;79;21505;-70
2022/08/26 17:38:49;;;;;;;21.37;5.65;;;;;;;25.89;46.41;99671.30;2169414;80;20978;-71
2022/08/26 17:41:50;;;;;;;20.48;6.05;;;;;;;25.79;46.63;99674.06;2190246;80;20998;-72
2022/08/26 17:44:51;;;;;;;16.52;6.40;;;;;;;25.69;46.78;99668.66;2183119;80;20973;-73
2022/08/26 17:47:56;;;;;;;12.47;5.75;;;;;;;25.58;47.04;99672.50;2199763;80;20966;-71
2022/08/26 17:50:57;;;;;;;18.12;6.15;;;;;;;25.45;47.22;99673.36;2183838;80;21077;-70
2022/08/26 17:53:58;;;;;;;10.68;5.10;;;;;;;25.31;47.43;99672.28;2195331;80;21016;-71
2022/08/26 17:56:59;;;;;;;14.30;4.95;;;;;;;25.20;47.65;99671.52;2190955;80;21005;-72
2022/08/26 18:00:04;;;;;;;14.63;4.92;;;;;;;25.06;47.89;99675.84;2183370;80;21062;-71
2022/08/26 18:03:10;;;;;;;16.73;4.72;;;;;;;24.92;48.09;99671.52;2166006;80;20993;-71
2022/08/26 18:06:14;;;;;;;14.68;3.92;;;;;;;24.80;48.29;99667.69;2190645;80;21500;-72
2022/08/26 18:09:15;;;;;;;19.92;5.35;;;;;;;24.69;48.46;99669.33;2191784;80;20998;-71
2022/08/26 18:12:16;;;;;;;15.78;4.70;;;;;;;24.58;48.69;99663.08;2184182;80;21009;-72
2022/08/26 18:15:21;;;;;;;21.68;4.60;;;;;;;24.47;48.92;99658.72;2189681;80;21442;-73
2022/08/26 18:18:22;;;;;;;13.53;4.37;;;;;;;24.36;49.09;99668.19;2158050;80;21516;-72
2022/08/26 18:21:26;;;;;;;12.47;4.87;;;;;;;24.26;49.26;99666.80;2182846;80;21017;-72
2022/08/26 18:24:29;;;;;;;20.52;4.83;;;;;;;24.19;49.41;99669.48;2191258;80;21475;-73
2022/08/26 18:27:34;;;;;;;18.70;4.90;;;;;;;24.11;49.54;99673.01;2186033;80;21002;-72
2022/08/26 18:30:35;;;;;;;17.25;4.65;;;;;;;24.05;49.75;99678.14;2197951;80;21010;-73
2022/08/26 18:33:37;;;;;;;12.88;3.77;;;;;;;23.95;49.93;99682.16;2188449;80;20950;-73
2022/08/26 18:36:46;;;;;;;10.63;4.17;;;;;;;23.89;50.09;99685.39;2187304;80;21054;-72
2022/08/26 18:39:47;;;;;;;10.82;4.30;;;;;;;23.84;50.21;99689.44;2197658;80;21594;-73
2022/08/26 18:42:48;;;;;;;15.90;4.95;;;;;;;23.80;50.33;99692.95;2184396;80;21568;-72
2022/08/26 18:46:01;;;;;;;13.08;4.20;;;;;;;23.75;50.44;99695.09;2189628;80;21589;-73
2022/08/26 18:49:07;;;;;;;17.92;5.00;;;;;;;23.67;50.61;99690.14;2180199;80;21065;-72
2022/08/26 18:52:10;;;;;;;10.23;4.22;;;;;;;23.56;50.92;99688.45;2190576;80;21100;-73
2022/08/26 18:55:12;;;;;;;10.88;4.30;;;;;;;23.44;51.23;99683.25;2182712;80;21616;-73
2022/08/26 18:58:15;;;;;;;10.90;4.12;;;;;;;23.31;51.46;99691.28;2147667;80;21045;-73
2022/08/26 19:01:17;;;;;;;15.25;4.17;;;;;;;23.21;51.67;99701.52;2202084;80;20990;-72
2022/08/26 19:04:20;;;;;;;16.37;4.95;;;;;;;23.10;51.81;99699.00;2185830;80;21010;-72
2022/08/26 19:07:24;;;;;;;15.32;5.22;;;;;;;23.01;52.00;99698.13;2193797;80;21461;-72
2022/08/26 19:10:25;;;;;;;15.28;4.25;;;;;;;22.93;52.21;99698.57;2195370;80;21001;-72
2022/08/26 19:13:29;;;;;;;11.22;4.35;;;;;;;22.86;52.38;99697.14;2165212;80;21616;-72
2022/08/26 19:16:34;;;;;;;6.80;3.75;;;;;;;22.75;52.59;99703.00;2192376;80;21061;-73
2022/08/26 19:19:36;;;;;;;12.25;4.10;;;;;;;22.57;52.95;99705.01;2191070;80;20974;-72
2022/08/26 19:22:40;;;;;;;15.05;4.37;;;;;;;22.40;53.57;99701.59;2183428;79;21010;-72
2022/08/26 19:25:59;;;;;;;12.90;4.78;;;;;;;22.23;53.95;99708.44;2144993;82;21033;-72
2022/08/26 19:28:51;;;;;;;12.28;4.33;;;;;;;22.08;54.29;99712.30;2141135;82;21000;-73
2022/08/26 19:31:55;;;;;;;21.55;4.22;;;;;;;22.00;54.44;99720.84;2131689;82;21081;-72
2022/08/26 19:34:56;;;;;;;13.88;3.90;;;;;;;21.94;54.77;99720.78;2125930;82;21003;-72
2022/08/26 19:37:58;;;;;;;10.18;4.05;;;;;;;21.93;55.64;99718.31;2133630;82;21114;-72
2022/08/26 19:41:01;;;;;;;10.65;3.70;;;;;;;21.86;55.94;99721.21;2126083;82;21047;-72
2022/08/26 19:44:08;;;;;;;15.03;4.65;;;;;;;21.79;56.21;99723.80;2126641;82;20970;-72
2022/08/26 19:47:13;;;;;;;12.03;4.55;;;;;;;21.73;56.42;99729.67;2128506;82;21077;-72
2022/08/26 19:50:16;;;;;;;14.10;4.65;;;;;;;21.67;56.93;99730.67;2132257;82;21517;-72
2022/08/26 19:53:18;;;;;;;13.68;5.00;;;;;;;21.60;57.77;99741.66;2129963;82;21522;-72
2022/08/26 19:56:25;;;;;;;11.22;3.98;;;;;;;21.53;57.84;99740.19;2133060;82;20991;-73
2022/08/26 19:59:32;;;;;;;11.53;3.98;;;;;;;21.48;58.59;99736.37;2125656;82;21067;-73
2022/08/26 20:02:34;;;;;;;14.78;4.37;;;;;;;21.37;59.12;99752.13;2127878;82;21003;-72
2022/08/26 20:05:40;;;;;;;7.37;3.83;;;;;;;21.25;59.69;99753.50;2132179;82;21002;-73
2022/08/26 20:08:43;;;;;;;13.35;4.90;;;;;;;21.19;60.11;99752.33;2129944;82;21094;-73
2022/08/26 20:11:48;;;;;;;10.08;4.30;;;;;;;21.17;60.17;99765.23;2126744;82;21003;-73
2022/08/26 20:15:05;;;;;;;13.25;4.80;;;;;;;21.12;60.17;99762.45;2127947;82;21585;-73
2022/08/26 20:21:41;;;;;;;18.40;6.75;;;;;;;20.81;61.03;99749.82;2121673;82;21538;-72
2022/08/26 20:24:44;;;;;;;10.30;5.35;;;;;;;20.61;61.37;99750.27;2123014;82;20975;-73
2022/08/26 20:27:45;;;;;;;15.55;7.10;;;;;;;20.49;61.76;99753.50;2138486;82;21490;-73
2022/08/26 20:30:47;;;;;;;18.07;6.85;;;;;;;20.36;61.98;99747.88;2128249;82;20984;-72
2022/08/26 20:33:50;;;;;;;15.45;5.80;;;;;;;20.30;62.13;99754.20;2115063;82;21498;-72